sensor_id;sensor_type;location;lat;lon;timestamp;P1;durP1;ratioP1;P2;durP2;ratioP2
10309;SDS011;5200;43.236;27.986;2023-02-21T00:01:42;5.57;;;3.80;;
10309;SDS011;5200;43.236;27.986;2023-02-21T00:04:26;4.30;;;3.42;;
10309;SDS011;5200;43.236;27.986;2023-02-21T00:07:10;5.50;;;3.55;;
10309;SDS011;5200;43.236;27.986;2023-02-21T00:09:54;3.65;;;3.08;;
10309;SDS011;5200;43.236;27.986;2023-02-21T00:12:38;3.78;;;3.38;;
10309;SDS011;5200;43.236;27.986;2023-02-21T00:15:22;4.53;;;3.20;;
10309;SDS011;5200;43.236;27.986;2023-02-21T00:18:07;3.97;;;3.15;;
10309;SDS011;5200;43.236;27.986;2023-02-21T00:20:51;5.68;;;3.05;;
10309;SDS011;5200;43.236;27.986;2023-02-21T00:23:35;4.38;;;3.30;;
10309;SDS011;5200;43.236;27.986;2023-02-21T00:26:20;4.53;;;3.15;;
10309;SDS011;5200;43.236;27.986;2023-02-21T00:29:05;3.95;;;2.88;;
10309;SDS011;5200;43.236;27.986;2023-02-21T00:31:49;4.20;;;2.88;;
10309;SDS011;5200;43.236;27.986;2023-02-21T00:34:35;4.50;;;2.65;;
10309;SDS011;5200;43.236;27.986;2023-02-21T00:37:19;3.22;;;2.92;;
10309;SDS011;5200;43.236;27.986;2023-02-21T00:40:04;4.05;;;2.83;;
10309;SDS011;5200;43.236;27.986;2023-02-21T00:42:49;4.25;;;3.30;;
10309;SDS011;5200;43.236;27.986;2023-02-21T00:45:33;3.42;;;2.65;;
10309;SDS011;5200;43.236;27.986;2023-02-21T00:48:18;3.03;;;2.50;;
10309;SDS011;5200;43.236;27.986;2023-02-21T00:51:04;3.00;;;2.65;;
10309;SDS011;5200;43.236;27.986;2023-02-21T00:53:48;3.20;;;2.90;;
10309;SDS011;5200;43.236;27.986;2023-02-21T00:56:33;3.17;;;2.88;;
10309;SDS011;5200;43.236;27.986;2023-02-21T00:59:17;3.60;;;2.92;;
10309;SDS011;5200;43.236;27.986;2023-02-21T01:02:02;2.90;;;2.65;;
10309;SDS011;5200;43.236;27.986;2023-02-21T01:04:46;3.13;;;2.83;;
10309;SDS011;5200;43.236;27.986;2023-02-21T01:07:31;4.22;;;2.88;;
10309;SDS011;5200;43.236;27.986;2023-02-21T01:10:16;3.83;;;3.03;;
10309;SDS011;5200;43.236;27.986;2023-02-21T01:13:00;3.03;;;2.75;;
10309;SDS011;5200;43.236;27.986;2023-02-21T01:15:45;4.78;;;3.05;;
10309;SDS011;5200;43.236;27.986;2023-02-21T01:18:29;3.22;;;2.90;;
10309;SDS011;5200;43.236;27.986;2023-02-21T01:21:13;6.28;;;3.08;;
10309;SDS011;5200;43.236;27.986;2023-02-21T01:24:00;3.63;;;2.83;;
10309;SDS011;5200;43.236;27.986;2023-02-21T01:26:44;4.20;;;3.30;;
10309;SDS011;5200;43.236;27.986;2023-02-21T01:29:28;4.20;;;2.80;;
10309;SDS011;5200;43.236;27.986;2023-02-21T01:32:13;3.58;;;3.00;;
10309;SDS011;5200;43.236;27.986;2023-02-21T01:34:57;2.78;;;2.58;;
10309;SDS011;5200;43.236;27.986;2023-02-21T01:37:41;5.65;;;3.05;;
10309;SDS011;5200;43.236;27.986;2023-02-21T01:40:27;4.55;;;2.60;;
10309;SDS011;5200;43.236;27.986;2023-02-21T01:43:12;3.22;;;2.63;;
10309;SDS011;5200;43.236;27.986;2023-02-21T01:45:58;3.00;;;2.80;;
10309;SDS011;5200;43.236;27.986;2023-02-21T01:48:42;3.55;;;3.25;;
10309;SDS011;5200;43.236;27.986;2023-02-21T01:51:27;5.50;;;4.20;;
10309;SDS011;5200;43.236;27.986;2023-02-21T01:54:20;9.05;;;4.80;;
10309;SDS011;5200;43.236;27.986;2023-02-21T01:57:06;9.73;;;5.88;;
10309;SDS011;5200;43.236;27.986;2023-02-21T01:59:52;7.15;;;5.40;;
10309;SDS011;5200;43.236;27.986;2023-02-21T02:02:39;7.47;;;4.10;;
10309;SDS011;5200;43.236;27.986;2023-02-21T02:05:31;5.85;;;3.33;;
10309;SDS011;5200;43.236;27.986;2023-02-21T02:08:16;3.85;;;2.92;;
10309;SDS011;5200;43.236;27.986;2023-02-21T02:11:06;4.43;;;2.95;;
10309;SDS011;5200;43.236;27.986;2023-02-21T02:14:03;3.22;;;2.42;;
10309;SDS011;5200;43.236;27.986;2023-02-21T02:16:46;2.47;;;2.22;;
10309;SDS011;5200;43.236;27.986;2023-02-21T02:19:32;2.53;;;2.22;;
10309;SDS011;5200;43.236;27.986;2023-02-21T02:25:20;1.73;;;1.63;;
10309;SDS011;5200;43.236;27.986;2023-02-21T02:28:08;2.08;;;1.50;;
10309;SDS011;5200;43.236;27.986;2023-02-21T02:31:02;1.60;;;1.33;;
10309;SDS011;5200;43.236;27.986;2023-02-21T02:37:01;6.82;;;1.45;;
10309;SDS011;5200;43.236;27.986;2023-02-21T02:39:37;1.27;;;1.17;;
10309;SDS011;5200;43.236;27.986;2023-02-21T02:42:09;1.60;;;1.50;;
10309;SDS011;5200;43.236;27.986;2023-02-21T02:44:42;1.60;;;1.38;;
10309;SDS011;5200;43.236;27.986;2023-02-21T02:47:16;2.17;;;1.25;;
10309;SDS011;5200;43.236;27.986;2023-02-21T02:49:52;2.50;;;1.33;;
10309;SDS011;5200;43.236;27.986;2023-02-21T02:52:22;1.40;;;1.30;;
10309;SDS011;5200;43.236;27.986;2023-02-21T02:54:56;1.33;;;1.23;;
10309;SDS011;5200;43.236;27.986;2023-02-21T02:57:24;1.27;;;1.17;;
10309;SDS011;5200;43.236;27.986;2023-02-21T02:59:51;2.35;;;1.67;;
10309;SDS011;5200;43.236;27.986;2023-02-21T03:02:34;1.65;;;1.52;;
10309;SDS011;5200;43.236;27.986;2023-02-21T03:05:18;3.00;;;1.20;;
10309;SDS011;5200;43.236;27.986;2023-02-21T03:07:57;1.30;;;1.20;;
10309;SDS011;5200;43.236;27.986;2023-02-21T03:10:32;3.05;;;1.30;;
10309;SDS011;5200;43.236;27.986;2023-02-21T03:13:08;2.03;;;1.85;;
10309;SDS011;5200;43.236;27.986;2023-02-21T03:15:43;2.15;;;1.70;;
10309;SDS011;5200;43.236;27.986;2023-02-21T03:18:16;1.75;;;1.48;;
10309;SDS011;5200;43.236;27.986;2023-02-21T03:20:51;2.03;;;1.40;;
10309;SDS011;5200;43.236;27.986;2023-02-21T03:23:23;2.45;;;1.20;;
10309;SDS011;5200;43.236;27.986;2023-02-21T03:25:53;1.20;;;1.10;;
10309;SDS011;5200;43.236;27.986;2023-02-21T03:28:23;1.42;;;1.33;;
10309;SDS011;5200;43.236;27.986;2023-02-21T03:30:51;1.38;;;1.23;;
10309;SDS011;5200;43.236;27.986;2023-02-21T03:33:21;2.17;;;1.30;;
10309;SDS011;5200;43.236;27.986;2023-02-21T03:35:48;1.15;;;1.13;;
10309;SDS011;5200;43.236;27.986;2023-02-21T03:38:15;1.40;;;1.30;;
10309;SDS011;5200;43.236;27.986;2023-02-21T03:40:43;2.05;;;1.30;;
10309;SDS011;5200;43.236;27.986;2023-02-21T03:43:10;2.42;;;1.10;;
10309;SDS011;5200;43.236;27.986;2023-02-21T03:45:37;1.60;;;1.50;;
10309;SDS011;5200;43.236;27.986;2023-02-21T03:48:04;1.83;;;1.20;;
10309;SDS011;5200;43.236;27.986;2023-02-21T03:50:31;1.40;;;1.30;;
10309;SDS011;5200;43.236;27.986;2023-02-21T03:52:57;1.33;;;1.20;;
10309;SDS011;5200;43.236;27.986;2023-02-21T03:55:24;1.30;;;1.20;;
10309;SDS011;5200;43.236;27.986;2023-02-21T03:57:52;1.40;;;1.30;;
10309;SDS011;5200;43.236;27.986;2023-02-21T04:00:19;1.63;;;1.20;;
10309;SDS011;5200;43.236;27.986;2023-02-21T04:02:46;2.13;;;1.40;;
10309;SDS011;5200;43.236;27.986;2023-02-21T04:05:13;1.40;;;1.30;;
10309;SDS011;5200;43.236;27.986;2023-02-21T04:07:40;1.88;;;1.40;;
10309;SDS011;5200;43.236;27.986;2023-02-21T04:10:06;1.70;;;1.30;;
10309;SDS011;5200;43.236;27.986;2023-02-21T04:12:34;2.42;;;1.50;;
10309;SDS011;5200;43.236;27.986;2023-02-21T04:15:02;2.15;;;1.50;;
10309;SDS011;5200;43.236;27.986;2023-02-21T04:17:29;1.50;;;1.25;;
10309;SDS011;5200;43.236;27.986;2023-02-21T04:19:55;3.47;;;1.55;;
10309;SDS011;5200;43.236;27.986;2023-02-21T04:22:22;1.60;;;1.50;;
10309;SDS011;5200;43.236;27.986;2023-02-21T04:24:49;1.60;;;1.50;;
10309;SDS011;5200;43.236;27.986;2023-02-21T04:27:16;1.50;;;1.40;;
10309;SDS011;5200;43.236;27.986;2023-02-21T04:29:43;2.45;;;1.40;;
10309;SDS011;5200;43.236;27.986;2023-02-21T04:32:11;1.55;;;1.45;;
10309;SDS011;5200;43.236;27.986;2023-02-21T04:34:38;2.25;;;1.80;;
10309;SDS011;5200;43.236;27.986;2023-02-21T04:37:05;2.25;;;2.05;;
10309;SDS011;5200;43.236;27.986;2023-02-21T04:39:31;2.08;;;1.80;;
10309;SDS011;5200;43.236;27.986;2023-02-21T04:41:58;1.42;;;1.33;;
10309;SDS011;5200;43.236;27.986;2023-02-21T04:44:25;1.70;;;1.60;;
10309;SDS011;5200;43.236;27.986;2023-02-21T04:46:52;3.53;;;1.83;;
10309;SDS011;5200;43.236;27.986;2023-02-21T04:49:20;2.50;;;1.80;;
10309;SDS011;5200;43.236;27.986;2023-02-21T04:51:49;1.70;;;1.60;;
10309;SDS011;5200;43.236;27.986;2023-02-21T04:54:16;1.50;;;1.40;;
10309;SDS011;5200;43.236;27.986;2023-02-21T04:56:42;2.25;;;1.65;;
10309;SDS011;5200;43.236;27.986;2023-02-21T04:59:09;2.38;;;1.52;;
10309;SDS011;5200;43.236;27.986;2023-02-21T05:01:36;2.00;;;1.83;;
10309;SDS011;5200;43.236;27.986;2023-02-21T05:04:03;2.85;;;1.67;;
10309;SDS011;5200;43.236;27.986;2023-02-21T05:06:32;1.98;;;1.58;;
10309;SDS011;5200;43.236;27.986;2023-02-21T05:08:59;3.08;;;1.90;;
10309;SDS011;5200;43.236;27.986;2023-02-21T05:11:26;3.83;;;1.80;;
10309;SDS011;5200;43.236;27.986;2023-02-21T05:13:53;2.28;;;2.08;;
10309;SDS011;5200;43.236;27.986;2023-02-21T05:16:20;2.13;;;1.92;;
10309;SDS011;5200;43.236;27.986;2023-02-21T05:18:47;1.77;;;1.63;;
10309;SDS011;5200;43.236;27.986;2023-02-21T05:21:15;2.90;;;1.88;;
10309;SDS011;5200;43.236;27.986;2023-02-21T05:23:45;2.00;;;1.67;;
10309;SDS011;5200;43.236;27.986;2023-02-21T05:26:20;2.33;;;1.60;;
10309;SDS011;5200;43.236;27.986;2023-02-21T05:28:48;1.80;;;1.70;;
10309;SDS011;5200;43.236;27.986;2023-02-21T05:31:15;1.60;;;1.50;;
10309;SDS011;5200;43.236;27.986;2023-02-21T05:33:42;1.95;;;1.70;;
10309;SDS011;5200;43.236;27.986;2023-02-21T05:36:08;2.28;;;1.60;;
10309;SDS011;5200;43.236;27.986;2023-02-21T05:38:42;1.42;;;1.33;;
10309;SDS011;5200;43.236;27.986;2023-02-21T05:41:11;2.08;;;1.83;;
10309;SDS011;5200;43.236;27.986;2023-02-21T05:43:38;1.98;;;1.58;;
10309;SDS011;5200;43.236;27.986;2023-02-21T05:46:05;1.73;;;1.50;;
10309;SDS011;5200;43.236;27.986;2023-02-21T05:48:32;2.38;;;2.05;;
10309;SDS011;5200;43.236;27.986;2023-02-21T05:50:58;1.98;;;1.40;;
10309;SDS011;5200;43.236;27.986;2023-02-21T05:53:25;2.17;;;1.80;;
10309;SDS011;5200;43.236;27.986;2023-02-21T05:55:52;3.08;;;1.73;;
10309;SDS011;5200;43.236;27.986;2023-02-21T05:58:20;3.63;;;2.15;;
10309;SDS011;5200;43.236;27.986;2023-02-21T06:00:47;2.15;;;1.63;;
10309;SDS011;5200;43.236;27.986;2023-02-21T06:03:14;2.00;;;1.73;;
10309;SDS011;5200;43.236;27.986;2023-02-21T06:05:41;3.20;;;1.80;;
10309;SDS011;5200;43.236;27.986;2023-02-21T06:08:07;2.08;;;1.88;;
10309;SDS011;5200;43.236;27.986;2023-02-21T06:10:34;1.95;;;1.80;;
10309;SDS011;5200;43.236;27.986;2023-02-21T06:13:01;2.38;;;2.03;;
10309;SDS011;5200;43.236;27.986;2023-02-21T06:15:29;2.17;;;1.88;;
10309;SDS011;5200;43.236;27.986;2023-02-21T06:17:56;1.98;;;1.77;;
10309;SDS011;5200;43.236;27.986;2023-02-21T06:20:23;2.97;;;1.75;;
10309;SDS011;5200;43.236;27.986;2023-02-21T06:22:50;7.32;;;1.80;;
10309;SDS011;5200;43.236;27.986;2023-02-21T06:25:17;4.93;;;2.83;;
10309;SDS011;5200;43.236;27.986;2023-02-21T06:27:43;2.70;;;2.10;;
10309;SDS011;5200;43.236;27.986;2023-02-21T06:30:11;4.90;;;1.80;;
10309;SDS011;5200;43.236;27.986;2023-02-21T06:32:39;2.78;;;1.88;;
10309;SDS011;5200;43.236;27.986;2023-02-21T06:35:07;4.88;;;2.53;;
10309;SDS011;5200;43.236;27.986;2023-02-21T06:37:35;6.05;;;1.95;;
10309;SDS011;5200;43.236;27.986;2023-02-21T06:40:02;2.55;;;1.80;;
10309;SDS011;5200;43.236;27.986;2023-02-21T06:42:30;1.65;;;1.52;;
10309;SDS011;5200;43.236;27.986;2023-02-21T06:44:56;2.13;;;1.70;;
10309;SDS011;5200;43.236;27.986;2023-02-21T06:47:23;2.58;;;1.70;;
10309;SDS011;5200;43.236;27.986;2023-02-21T06:49:51;1.85;;;1.65;;
10309;SDS011;5200;43.236;27.986;2023-02-21T06:52:18;5.38;;;1.80;;
10309;SDS011;5200;43.236;27.986;2023-02-21T06:54:45;3.05;;;1.98;;
10309;SDS011;5200;43.236;27.986;2023-02-21T06:57:15;4.22;;;2.42;;
10309;SDS011;5200;43.236;27.986;2023-02-21T06:59:42;5.32;;;1.92;;
10309;SDS011;5200;43.236;27.986;2023-02-21T07:02:09;2.10;;;1.67;;
10309;SDS011;5200;43.236;27.986;2023-02-21T07:04:42;5.30;;;2.30;;
10309;SDS011;5200;43.236;27.986;2023-02-21T07:07:10;2.20;;;2.00;;
10309;SDS011;5200;43.236;27.986;2023-02-21T07:09:37;2.38;;;2.17;;
10309;SDS011;5200;43.236;27.986;2023-02-21T07:12:04;2.75;;;1.70;;
10309;SDS011;5200;43.236;27.986;2023-02-21T07:14:32;6.93;;;2.55;;
10309;SDS011;5200;43.236;27.986;2023-02-21T07:16:59;3.00;;;1.88;;
10309;SDS011;5200;43.236;27.986;2023-02-21T07:19:26;2.83;;;2.17;;
10309;SDS011;5200;43.236;27.986;2023-02-21T07:21:53;5.88;;;1.90;;
10309;SDS011;5200;43.236;27.986;2023-02-21T07:24:21;4.82;;;2.08;;
10309;SDS011;5200;43.236;27.986;2023-02-21T07:26:48;2.60;;;2.10;;
10309;SDS011;5200;43.236;27.986;2023-02-21T07:29:16;5.07;;;2.30;;
10309;SDS011;5200;43.236;27.986;2023-02-21T07:31:43;2.72;;;1.85;;
10309;SDS011;5200;43.236;27.986;2023-02-21T07:34:10;2.53;;;2.00;;
10309;SDS011;5200;43.236;27.986;2023-02-21T07:36:37;4.25;;;2.00;;
10309;SDS011;5200;43.236;27.986;2023-02-21T07:39:04;4.93;;;2.38;;
10309;SDS011;5200;43.236;27.986;2023-02-21T07:41:32;6.50;;;2.28;;
10309;SDS011;5200;43.236;27.986;2023-02-21T07:43:59;6.47;;;2.22;;
10309;SDS011;5200;43.236;27.986;2023-02-21T07:46:26;4.28;;;2.00;;
10309;SDS011;5200;43.236;27.986;2023-02-21T07:48:53;3.85;;;1.88;;
10309;SDS011;5200;43.236;27.986;2023-02-21T07:51:20;3.67;;;2.13;;
10309;SDS011;5200;43.236;27.986;2023-02-21T07:53:47;3.38;;;1.90;;
10309;SDS011;5200;43.236;27.986;2023-02-21T07:56:14;2.30;;;2.00;;
10309;SDS011;5200;43.236;27.986;2023-02-21T07:58:42;3.67;;;2.22;;
10309;SDS011;5200;43.236;27.986;2023-02-21T08:01:09;2.85;;;2.30;;
10309;SDS011;5200;43.236;27.986;2023-02-21T08:03:36;2.75;;;2.33;;
10309;SDS011;5200;43.236;27.986;2023-02-21T08:06:04;6.32;;;1.80;;
10309;SDS011;5200;43.236;27.986;2023-02-21T08:08:33;4.63;;;2.25;;
10309;SDS011;5200;43.236;27.986;2023-02-21T08:11:00;4.93;;;2.40;;
10309;SDS011;5200;43.236;27.986;2023-02-21T08:13:27;2.03;;;1.90;;
10309;SDS011;5200;43.236;27.986;2023-02-21T08:15:55;3.65;;;2.17;;
10309;SDS011;5200;43.236;27.986;2023-02-21T08:18:22;5.82;;;2.10;;
10309;SDS011;5200;43.236;27.986;2023-02-21T08:20:50;3.75;;;2.17;;
10309;SDS011;5200;43.236;27.986;2023-02-21T08:23:17;3.78;;;2.33;;
10309;SDS011;5200;43.236;27.986;2023-02-21T08:25:44;3.63;;;2.28;;
10309;SDS011;5200;43.236;27.986;2023-02-21T08:28:12;2.63;;;2.25;;
10309;SDS011;5200;43.236;27.986;2023-02-21T08:30:40;2.33;;;2.10;;
10309;SDS011;5200;43.236;27.986;2023-02-21T08:33:08;2.85;;;2.08;;
10309;SDS011;5200;43.236;27.986;2023-02-21T08:35:35;3.28;;;2.10;;
10309;SDS011;5200;43.236;27.986;2023-02-21T08:38:02;2.42;;;2.00;;
10309;SDS011;5200;43.236;27.986;2023-02-21T08:40:29;3.88;;;2.22;;
10309;SDS011;5200;43.236;27.986;2023-02-21T08:42:57;6.30;;;2.50;;
10309;SDS011;5200;43.236;27.986;2023-02-21T08:45:25;2.88;;;2.40;;
10309;SDS011;5200;43.236;27.986;2023-02-21T08:47:53;3.88;;;2.38;;
10309;SDS011;5200;43.236;27.986;2023-02-21T08:50:22;2.45;;;2.25;;
10309;SDS011;5200;43.236;27.986;2023-02-21T08:52:51;2.58;;;2.00;;
10309;SDS011;5200;43.236;27.986;2023-02-21T08:55:18;2.53;;;2.33;;
10309;SDS011;5200;43.236;27.986;2023-02-21T08:57:46;2.47;;;2.28;;
10309;SDS011;5200;43.236;27.986;2023-02-21T09:00:14;2.80;;;2.50;;
10309;SDS011;5200;43.236;27.986;2023-02-21T09:02:41;3.60;;;2.20;;
10309;SDS011;5200;43.236;27.986;2023-02-21T09:05:09;4.88;;;2.17;;
10309;SDS011;5200;43.236;27.986;2023-02-21T09:07:40;2.53;;;2.17;;
10309;SDS011;5200;43.236;27.986;2023-02-21T09:10:08;3.75;;;2.25;;
10309;SDS011;5200;43.236;27.986;2023-02-21T09:12:35;4.95;;;2.88;;
10309;SDS011;5200;43.236;27.986;2023-02-21T09:15:03;4.57;;;2.65;;
10309;SDS011;5200;43.236;27.986;2023-02-21T09:17:30;3.47;;;2.50;;
10309;SDS011;5200;43.236;27.986;2023-02-21T09:19:58;2.70;;;2.10;;
10309;SDS011;5200;43.236;27.986;2023-02-21T09:22:25;2.58;;;2.28;;
10309;SDS011;5200;43.236;27.986;2023-02-21T09:24:53;2.70;;;2.47;;
10309;SDS011;5200;43.236;27.986;2023-02-21T09:27:21;3.10;;;2.55;;
10309;SDS011;5200;43.236;27.986;2023-02-21T09:30:01;3.28;;;2.58;;
10309;SDS011;5200;43.236;27.986;2023-02-21T09:32:29;3.42;;;2.15;;
10309;SDS011;5200;43.236;27.986;2023-02-21T09:34:56;4.32;;;2.42;;
10309;SDS011;5200;43.236;27.986;2023-02-21T09:37:23;3.55;;;2.60;;
10309;SDS011;5200;43.236;27.986;2023-02-21T09:39:49;3.30;;;2.17;;
10309;SDS011;5200;43.236;27.986;2023-02-21T09:42:18;3.83;;;2.20;;
10309;SDS011;5200;43.236;27.986;2023-02-21T09:44:54;4.90;;;2.55;;
10309;SDS011;5200;43.236;27.986;2023-02-21T09:47:23;6.13;;;2.92;;
10309;SDS011;5200;43.236;27.986;2023-02-21T09:49:55;3.80;;;2.30;;
10309;SDS011;5200;43.236;27.986;2023-02-21T09:52:26;3.15;;;2.20;;
10309;SDS011;5200;43.236;27.986;2023-02-21T09:54:59;4.15;;;2.45;;
10309;SDS011;5200;43.236;27.986;2023-02-21T09:57:34;2.67;;;2.22;;
10309;SDS011;5200;43.236;27.986;2023-02-21T10:00:05;4.82;;;2.20;;
10309;SDS011;5200;43.236;27.986;2023-02-21T10:02:42;3.80;;;2.28;;
10309;SDS011;5200;43.236;27.986;2023-02-21T10:05:20;2.47;;;2.20;;
10309;SDS011;5200;43.236;27.986;2023-02-21T10:07:57;5.05;;;2.42;;
10309;SDS011;5200;43.236;27.986;2023-02-21T10:10:29;2.83;;;2.10;;
10309;SDS011;5200;43.236;27.986;2023-02-21T10:13:04;3.30;;;2.30;;
10309;SDS011;5200;43.236;27.986;2023-02-21T10:15:47;4.05;;;2.10;;
10309;SDS011;5200;43.236;27.986;2023-02-21T10:18:21;2.83;;;1.83;;
10309;SDS011;5200;43.236;27.986;2023-02-21T10:20:55;4.38;;;2.22;;
10309;SDS011;5200;43.236;27.986;2023-02-21T10:23:26;3.10;;;1.90;;
10309;SDS011;5200;43.236;27.986;2023-02-21T10:26:00;5.72;;;1.88;;
10309;SDS011;5200;43.236;27.986;2023-02-21T10:28:34;3.00;;;2.10;;
10309;SDS011;5200;43.236;27.986;2023-02-21T10:31:04;3.42;;;2.25;;
10309;SDS011;5200;43.236;27.986;2023-02-21T10:33:38;7.90;;;2.38;;
10309;SDS011;5200;43.236;27.986;2023-02-21T10:36:10;2.83;;;1.85;;
10309;SDS011;5200;43.236;27.986;2023-02-21T10:38:38;2.53;;;1.90;;
10309;SDS011;5200;43.236;27.986;2023-02-21T10:41:08;11.60;;;2.53;;
10309;SDS011;5200;43.236;27.986;2023-02-21T10:43:38;3.92;;;2.38;;
10309;SDS011;5200;43.236;27.986;2023-02-21T10:46:11;3.65;;;2.08;;
10309;SDS011;5200;43.236;27.986;2023-02-21T10:48:41;2.65;;;1.73;;
10309;SDS011;5200;43.236;27.986;2023-02-21T10:51:10;2.17;;;1.90;;
10309;SDS011;5200;43.236;27.986;2023-02-21T10:53:38;5.05;;;2.00;;
10309;SDS011;5200;43.236;27.986;2023-02-21T10:58:54;4.80;;;1.85;;
10309;SDS011;5200;43.236;27.986;2023-02-21T11:01:32;4.60;;;1.98;;
10309;SDS011;5200;43.236;27.986;2023-02-21T11:04:03;2.20;;;1.80;;
10309;SDS011;5200;43.236;27.986;2023-02-21T11:06:32;7.50;;;2.00;;
10309;SDS011;5200;43.236;27.986;2023-02-21T11:09:01;8.57;;;2.45;;
10309;SDS011;5200;43.236;27.986;2023-02-21T11:11:48;6.72;;;1.63;;
10309;SDS011;5200;43.236;27.986;2023-02-21T11:14:27;4.88;;;1.83;;
10309;SDS011;5200;43.236;27.986;2023-02-21T11:19:42;12.55;;;2.72;;
10309;SDS011;5200;43.236;27.986;2023-02-21T11:22:12;8.75;;;2.70;;
10309;SDS011;5200;43.236;27.986;2023-02-21T11:27:34;11.98;;;2.45;;
10309;SDS011;5200;43.236;27.986;2023-02-21T11:30:09;13.80;;;3.00;;
10309;SDS011;5200;43.236;27.986;2023-02-21T11:32:41;11.40;;;4.63;;
10309;SDS011;5200;43.236;27.986;2023-02-21T11:35:20;16.23;;;7.88;;
10309;SDS011;5200;43.236;27.986;2023-02-21T11:37:50;15.70;;;6.93;;
10309;SDS011;5200;43.236;27.986;2023-02-21T11:40:27;16.33;;;5.63;;
10309;SDS011;5200;43.236;27.986;2023-02-21T11:45:56;9.07;;;4.35;;
10309;SDS011;5200;43.236;27.986;2023-02-21T11:48:31;17.33;;;5.90;;
10309;SDS011;5200;43.236;27.986;2023-02-21T11:51:03;15.50;;;6.25;;
10309;SDS011;5200;43.236;27.986;2023-02-21T11:53:35;18.27;;;7.00;;
10309;SDS011;5200;43.236;27.986;2023-02-21T11:56:10;17.13;;;7.78;;
10309;SDS011;5200;43.236;27.986;2023-02-21T11:58:55;20.42;;;7.40;;
10309;SDS011;5200;43.236;27.986;2023-02-21T12:01:31;16.88;;;7.10;;
10309;SDS011;5200;43.236;27.986;2023-02-21T12:04:08;12.95;;;6.63;;
10309;SDS011;5200;43.236;27.986;2023-02-21T12:06:57;8.73;;;4.68;;
10309;SDS011;5200;43.236;27.986;2023-02-21T12:09:31;12.18;;;5.18;;
10309;SDS011;5200;43.236;27.986;2023-02-21T12:12:09;6.93;;;5.15;;
10309;SDS011;5200;43.236;27.986;2023-02-21T12:14:50;13.10;;;5.63;;
10309;SDS011;5200;43.236;27.986;2023-02-21T12:17:51;10.50;;;5.22;;
10309;SDS011;5200;43.236;27.986;2023-02-21T12:20:33;12.85;;;4.60;;
10309;SDS011;5200;43.236;27.986;2023-02-21T12:23:14;11.80;;;4.70;;
10309;SDS011;5200;43.236;27.986;2023-02-21T12:25:52;8.18;;;3.88;;
10309;SDS011;5200;43.236;27.986;2023-02-21T12:28:47;18.13;;;3.85;;
10309;SDS011;5200;43.236;27.986;2023-02-21T12:31:27;7.57;;;3.38;;
10309;SDS011;5200;43.236;27.986;2023-02-21T12:34:08;7.20;;;3.15;;
10309;SDS011;5200;43.236;27.986;2023-02-21T12:39:52;8.52;;;2.38;;
10309;SDS011;5200;43.236;27.986;2023-02-21T12:42:35;7.07;;;2.15;;
10309;SDS011;5200;43.236;27.986;2023-02-21T12:45:16;8.20;;;2.17;;
10309;SDS011;5200;43.236;27.986;2023-02-21T12:47:54;8.90;;;1.85;;
10309;SDS011;5200;43.236;27.986;2023-02-21T12:50:28;15.65;;;2.08;;
10309;SDS011;5200;43.236;27.986;2023-02-21T12:52:59;9.20;;;2.25;;
10309;SDS011;5200;43.236;27.986;2023-02-21T12:55:33;4.28;;;1.80;;
10309;SDS011;5200;43.236;27.986;2023-02-21T12:58:05;3.03;;;1.65;;
10309;SDS011;5200;43.236;27.986;2023-02-21T13:00:41;6.75;;;1.50;;
10309;SDS011;5200;43.236;27.986;2023-02-21T13:03:15;5.63;;;1.58;;
10309;SDS011;5200;43.236;27.986;2023-02-21T13:05:56;5.43;;;1.65;;
10309;SDS011;5200;43.236;27.986;2023-02-21T13:08:28;9.25;;;2.30;;
10309;SDS011;5200;43.236;27.986;2023-02-21T13:11:01;11.40;;;1.88;;
10309;SDS011;5200;43.236;27.986;2023-02-21T13:13:34;7.53;;;1.70;;
10309;SDS011;5200;43.236;27.986;2023-02-21T13:16:03;14.43;;;1.83;;
10309;SDS011;5200;43.236;27.986;2023-02-21T13:18:34;5.50;;;1.40;;
10309;SDS011;5200;43.236;27.986;2023-02-21T13:21:10;7.85;;;2.05;;
10309;SDS011;5200;43.236;27.986;2023-02-21T13:23:48;6.60;;;1.60;;
10309;SDS011;5200;43.236;27.986;2023-02-21T13:26:26;6.40;;;1.73;;
10309;SDS011;5200;43.236;27.986;2023-02-21T13:29:02;8.10;;;1.67;;
10309;SDS011;5200;43.236;27.986;2023-02-21T13:31:40;11.77;;;1.73;;
10309;SDS011;5200;43.236;27.986;2023-02-21T13:34:10;6.50;;;1.30;;
10309;SDS011;5200;43.236;27.986;2023-02-21T13:36:41;2.35;;;1.50;;
10309;SDS011;5200;43.236;27.986;2023-02-21T13:39:11;4.95;;;1.90;;
10309;SDS011;5200;43.236;27.986;2023-02-21T13:41:41;6.22;;;1.77;;
10309;SDS011;5200;43.236;27.986;2023-02-21T13:44:11;9.15;;;1.88;;
10309;SDS011;5200;43.236;27.986;2023-02-21T13:49:41;3.65;;;1.83;;
10309;SDS011;5200;43.236;27.986;2023-02-21T13:52:24;3.90;;;1.85;;
10309;SDS011;5200;43.236;27.986;2023-02-21T14:01:17;10.85;;;2.15;;
10309;SDS011;5200;43.236;27.986;2023-02-21T14:03:48;6.53;;;1.55;;
10309;SDS011;5200;43.236;27.986;2023-02-21T14:06:33;11.45;;;1.98;;
10309;SDS011;5200;43.236;27.986;2023-02-21T14:09:04;7.75;;;1.95;;
10309;SDS011;5200;43.236;27.986;2023-02-21T14:11:37;9.38;;;2.35;;
10309;SDS011;5200;43.236;27.986;2023-02-21T14:14:17;9.25;;;2.47;;
10309;SDS011;5200;43.236;27.986;2023-02-21T14:16:48;1.92;;;1.30;;
10309;SDS011;5200;43.236;27.986;2023-02-21T14:19:18;6.15;;;1.60;;
10309;SDS011;5200;43.236;27.986;2023-02-21T14:21:50;9.43;;;1.95;;
10309;SDS011;5200;43.236;27.986;2023-02-21T14:24:29;4.68;;;1.67;;
10309;SDS011;5200;43.236;27.986;2023-02-21T14:27:00;5.30;;;1.95;;
10309;SDS011;5200;43.236;27.986;2023-02-21T14:29:33;5.15;;;1.63;;
10309;SDS011;5200;43.236;27.986;2023-02-21T14:32:14;7.40;;;1.70;;
10309;SDS011;5200;43.236;27.986;2023-02-21T14:34:51;7.25;;;2.15;;
10309;SDS011;5200;43.236;27.986;2023-02-21T14:37:21;6.95;;;2.03;;
10309;SDS011;5200;43.236;27.986;2023-02-21T14:39:53;9.20;;;1.77;;
10309;SDS011;5200;43.236;27.986;2023-02-21T14:45:31;4.90;;;1.73;;
10309;SDS011;5200;43.236;27.986;2023-02-21T14:48:14;4.63;;;1.77;;
10309;SDS011;5200;43.236;27.986;2023-02-21T14:50:53;5.18;;;1.60;;
10309;SDS011;5200;43.236;27.986;2023-02-21T14:53:51;10.50;;;1.63;;
10309;SDS011;5200;43.236;27.986;2023-02-21T14:56:53;4.95;;;1.60;;
10309;SDS011;5200;43.236;27.986;2023-02-21T14:59:31;10.15;;;1.95;;
10309;SDS011;5200;43.236;27.986;2023-02-21T15:02:13;5.35;;;2.08;;
10309;SDS011;5200;43.236;27.986;2023-02-21T15:04:49;12.18;;;2.10;;
10309;SDS011;5200;43.236;27.986;2023-02-21T15:07:22;3.78;;;1.70;;
10309;SDS011;5200;43.236;27.986;2023-02-21T15:10:06;10.02;;;2.47;;
10309;SDS011;5200;43.236;27.986;2023-02-21T15:12:41;4.22;;;1.50;;
10309;SDS011;5200;43.236;27.986;2023-02-21T15:15:13;10.35;;;2.45;;
10309;SDS011;5200;43.236;27.986;2023-02-21T15:17:42;6.88;;;1.80;;
10309;SDS011;5200;43.236;27.986;2023-02-21T15:20:20;5.78;;;1.67;;
10309;SDS011;5200;43.236;27.986;2023-02-21T15:22:53;6.00;;;1.50;;
10309;SDS011;5200;43.236;27.986;2023-02-21T15:25:22;10.10;;;2.05;;
10309;SDS011;5200;43.236;27.986;2023-02-21T15:28:04;4.00;;;1.80;;
10309;SDS011;5200;43.236;27.986;2023-02-21T15:30:34;8.77;;;1.83;;
10309;SDS011;5200;43.236;27.986;2023-02-21T15:33:13;12.05;;;2.28;;
10309;SDS011;5200;43.236;27.986;2023-02-21T15:35:44;7.57;;;1.70;;
10309;SDS011;5200;43.236;27.986;2023-02-21T15:38:15;5.13;;;1.75;;
10309;SDS011;5200;43.236;27.986;2023-02-21T15:40:46;5.95;;;1.83;;
10309;SDS011;5200;43.236;27.986;2023-02-21T15:43:29;2.65;;;1.65;;
10309;SDS011;5200;43.236;27.986;2023-02-21T15:46:01;8.93;;;1.92;;
10309;SDS011;5200;43.236;27.986;2023-02-21T15:48:30;3.72;;;1.98;;
10309;SDS011;5200;43.236;27.986;2023-02-21T15:50:59;4.93;;;1.95;;
10309;SDS011;5200;43.236;27.986;2023-02-21T15:53:29;4.45;;;1.92;;
10309;SDS011;5200;43.236;27.986;2023-02-21T16:01:36;4.13;;;2.20;;